createdAt,value
2019-02-24T00:02:01.567Z,2.07
2019-02-24T00:04:27.786Z,2.02
2019-02-24T00:06:54.432Z,2.03
2019-02-24T00:09:20.626Z,2.12
2019-02-24T00:11:46.880Z,2.10
2019-02-24T00:14:13.206Z,2.09
2019-02-24T00:16:39.395Z,2.05
2019-02-24T00:19:05.955Z,2.00
2019-02-24T00:21:32.235Z,1.99
2019-02-24T00:23:58.587Z,2.08
2019-02-24T00:26:25.204Z,2.07
2019-02-24T00:28:51.537Z,1.95
2019-02-24T00:31:18.172Z,2.01
2019-02-24T00:33:44.418Z,1.97
2019-02-24T00:36:10.949Z,1.98
2019-02-24T00:38:37.333Z,1.99
2019-02-24T00:41:04.184Z,2.01
2019-02-24T00:43:30.623Z,2.09
2019-02-24T00:45:56.785Z,2.02
2019-02-24T00:48:23.105Z,2.00
2019-02-24T00:50:49.384Z,2.07
2019-02-24T00:53:15.599Z,2.15
2019-02-24T00:55:42.038Z,2.14
2019-02-24T00:58:15.965Z,2.15
2019-02-24T01:00:36.910Z,2.07
2019-02-24T01:03:03.376Z,2.11
2019-02-24T01:05:29.651Z,2.15
2019-02-24T01:07:56.086Z,2.21
2019-02-24T01:10:22.276Z,2.12
2019-02-24T01:12:49.148Z,1.94
2019-02-24T01:15:15.413Z,1.94
2019-02-24T01:17:41.642Z,1.94
2019-02-24T01:20:08.211Z,1.86
2019-02-24T01:22:34.396Z,2.01
2019-02-24T01:25:00.967Z,2.02
2019-02-24T01:27:27.210Z,1.94
2019-02-24T01:29:53.597Z,1.64
2019-02-24T01:32:19.940Z,1.77
2019-02-24T01:34:46.277Z,1.79
2019-02-24T01:37:12.873Z,1.64
2019-02-24T01:39:39.364Z,1.78
2019-02-24T01:42:05.680Z,1.67
2019-02-24T01:44:31.943Z,1.71
2019-02-24T01:46:58.324Z,1.62
2019-02-24T01:49:24.638Z,1.37
2019-02-24T01:51:50.935Z,1.61
2019-02-24T01:54:17.416Z,1.57
2019-02-24T01:56:43.680Z,1.60
2019-02-24T01:59:09.983Z,1.54
2019-02-24T02:01:36.697Z,1.55
2019-02-24T02:04:03.348Z,1.37
2019-02-24T02:06:29.797Z,1.28
2019-02-24T02:08:56.716Z,1.35
2019-02-24T02:11:23.189Z,1.29
2019-02-24T02:13:49.548Z,1.22
2019-02-24T02:16:16.071Z,1.27
2019-02-24T02:18:42.317Z,1.27
2019-02-24T02:21:08.680Z,1.38
2019-02-24T02:23:35.395Z,1.28
2019-02-24T02:26:01.898Z,1.43
2019-02-24T02:28:28.310Z,1.49
2019-02-24T02:30:54.861Z,1.28
2019-02-24T02:33:21.179Z,1.29
2019-02-24T02:35:48.036Z,1.28
2019-02-24T02:38:14.336Z,1.21
2019-02-24T02:40:40.530Z,1.39
2019-02-24T02:43:06.810Z,1.48
2019-02-24T02:45:33.409Z,1.24
2019-02-24T02:48:00.983Z,1.07
2019-02-24T02:50:27.456Z,1.27
2019-02-24T02:52:57.352Z,1.31
2019-02-24T02:55:25.408Z,1.27
2019-02-24T02:57:51.918Z,1.19
2019-02-24T03:00:32.748Z,1.23
2019-02-24T03:02:59.363Z,1.19
2019-02-24T03:05:26.294Z,1.18
2019-02-24T03:07:54.921Z,1.13
2019-02-24T03:10:21.225Z,1.01
2019-02-24T03:13:07.302Z,1.05
2019-02-24T03:15:37.028Z,1.02
2019-02-24T03:18:03.492Z,0.84
2019-02-24T03:20:30.181Z,0.80
2019-02-24T03:22:56.538Z,0.95
2019-02-24T03:25:23.087Z,0.86
2019-02-24T03:27:49.502Z,0.91
2019-02-24T03:30:15.924Z,0.96
2019-02-24T03:35:53.684Z,0.88
2019-02-24T03:38:20.241Z,0.87
2019-02-24T03:40:46.482Z,1.01
2019-02-24T03:43:13.581Z,0.96
2019-02-24T03:45:40.428Z,1.05
2019-02-24T03:48:06.757Z,1.09
2019-02-24T03:50:33.378Z,1.03
2019-02-24T03:53:00.340Z,1.25
2019-02-24T03:55:27.363Z,1.16
2019-02-24T03:57:54.323Z,0.98
2019-02-24T04:00:20.689Z,1.02
2019-02-24T04:02:47.689Z,1.08
2019-02-24T04:05:14.268Z,1.09
2019-02-24T04:07:40.772Z,1.02
2019-02-24T04:10:07.244Z,0.96
2019-02-24T04:12:33.633Z,0.91
2019-02-24T04:14:59.952Z,0.96
2019-02-24T04:17:26.217Z,0.91
2019-02-24T04:19:52.721Z,0.73
2019-02-24T04:22:19.543Z,0.73
2019-02-24T04:24:45.803Z,0.82
2019-02-24T04:27:15.193Z,0.80
2019-02-24T04:29:41.741Z,0.78
2019-02-24T04:32:08.568Z,0.75
2019-02-24T04:34:35.388Z,0.76
2019-02-24T04:37:01.575Z,0.89
2019-02-24T04:39:27.739Z,0.79
2019-02-24T04:45:29.756Z,0.87
2019-02-24T04:47:56.108Z,0.79
2019-02-24T04:50:22.519Z,0.82
2019-02-24T04:52:48.952Z,0.77
2019-02-24T04:55:16.000Z,0.90
2019-02-24T04:57:42.446Z,0.64
2019-02-24T05:00:09.291Z,0.57
2019-02-24T05:02:35.530Z,0.72
2019-02-24T05:05:01.881Z,0.87
2019-02-24T05:07:28.192Z,0.92
2019-02-24T05:09:54.516Z,0.68
2019-02-24T05:12:20.945Z,0.66
2019-02-24T05:14:47.633Z,0.72
2019-02-24T05:17:13.919Z,0.86
2019-02-24T05:19:40.276Z,0.91
2019-02-24T05:22:06.713Z,0.79
2019-02-24T05:24:33.031Z,0.90
2019-02-24T05:26:59.556Z,1.01
2019-02-24T05:29:26.086Z,0.92
2019-02-24T05:31:52.371Z,0.95
2019-02-24T05:34:18.931Z,0.90
2019-02-24T05:36:45.370Z,0.92
2019-02-24T05:39:12.106Z,0.75
2019-02-24T05:41:38.375Z,0.93
2019-02-24T05:44:04.791Z,0.82
2019-02-24T05:46:31.434Z,0.67
2019-02-24T05:48:58.252Z,0.78
2019-02-24T05:51:24.633Z,0.91
2019-02-24T05:53:50.930Z,0.89
2019-02-24T05:56:17.223Z,0.79
2019-02-24T05:58:43.728Z,1.01
2019-02-24T06:01:10.335Z,0.96
2019-02-24T06:03:36.820Z,0.92
2019-02-24T06:06:03.309Z,0.76
2019-02-24T06:08:29.743Z,0.76
2019-02-24T06:10:55.982Z,0.99
2019-02-24T06:13:22.503Z,0.94
2019-02-24T06:15:49.316Z,0.93
2019-02-24T06:18:15.989Z,0.84
2019-02-24T06:20:42.743Z,0.75
2019-02-24T06:23:09.076Z,0.64
2019-02-24T06:25:35.406Z,0.78
2019-02-24T06:28:01.723Z,0.75
2019-02-24T06:30:28.120Z,0.93
2019-02-24T06:32:54.450Z,0.81
2019-02-24T06:35:20.711Z,0.80
2019-02-24T06:37:47.060Z,0.76
2019-02-24T06:40:13.585Z,0.78
2019-02-24T06:42:40.012Z,0.62
2019-02-24T06:45:07.680Z,0.62
2019-02-24T06:47:34.002Z,0.75
2019-02-24T06:50:00.882Z,0.77
2019-02-24T06:52:28.080Z,0.88
2019-02-24T06:54:55.128Z,1.06
2019-02-24T06:57:21.404Z,1.13
2019-02-24T06:59:47.883Z,1.21
2019-02-24T07:02:14.223Z,1.22
2019-02-24T07:04:40.705Z,1.13
2019-02-24T07:07:07.140Z,1.18
2019-02-24T07:09:33.482Z,1.20
2019-02-24T07:12:00.182Z,1.17
2019-02-24T07:14:26.527Z,1.14
2019-02-24T07:16:53.049Z,1.22
2019-02-24T07:19:19.393Z,1.24
2019-02-24T07:21:45.910Z,1.41
2019-02-24T07:24:12.559Z,1.65
2019-02-24T07:26:39.421Z,1.72
2019-02-24T07:29:06.055Z,1.99
2019-02-24T07:31:32.440Z,2.25
2019-02-24T07:33:58.976Z,2.35
2019-02-24T07:39:48.424Z,2.54
2019-02-24T07:42:14.832Z,2.43
2019-02-24T07:44:41.358Z,2.46
2019-02-24T07:47:07.589Z,2.61
2019-02-24T07:49:34.048Z,2.49
2019-02-24T07:52:00.976Z,2.66
2019-02-24T07:54:27.329Z,2.78
2019-02-24T07:56:53.835Z,2.78
2019-02-24T07:59:20.473Z,2.93
2019-02-24T08:01:46.718Z,2.85
2019-02-24T08:04:13.209Z,2.78
2019-02-24T08:06:39.612Z,2.79
2019-02-24T08:09:06.226Z,2.93
2019-02-24T08:11:32.649Z,2.90
2019-02-24T08:13:59.104Z,3.04
2019-02-24T08:16:25.725Z,3.12
2019-02-24T08:18:52.229Z,3.18
2019-02-24T08:21:18.993Z,3.38
2019-02-24T08:23:45.430Z,3.42
2019-02-24T08:26:11.783Z,3.57
2019-02-24T08:28:38.296Z,3.64
2019-02-24T08:31:04.921Z,3.80
2019-02-24T08:33:31.389Z,4.00
2019-02-24T08:35:57.902Z,4.28
2019-02-24T08:38:24.553Z,4.32
2019-02-24T08:40:51.381Z,4.39
2019-02-24T08:43:17.923Z,4.50
2019-02-24T08:45:44.448Z,4.65
2019-02-24T08:48:10.905Z,4.81
2019-02-24T08:50:37.288Z,4.89
2019-02-24T08:53:03.758Z,5.25
2019-02-24T08:55:30.412Z,5.41
2019-02-24T08:57:56.841Z,5.63
2019-02-24T09:00:23.278Z,5.82
2019-02-24T09:02:49.802Z,6.09
2019-02-24T09:05:16.197Z,6.16
2019-02-24T09:07:42.477Z,6.38
2019-02-24T09:10:09.197Z,6.49
2019-02-24T09:12:35.548Z,6.55
2019-02-24T09:15:05.685Z,6.72
2019-02-24T09:17:32.495Z,7.46
2019-02-24T09:20:02.937Z,7.63
2019-02-24T09:22:29.372Z,8.23
2019-02-24T09:24:55.897Z,8.77
2019-02-24T09:27:22.461Z,9.72
2019-02-24T09:29:48.950Z,10.29
2019-02-24T09:32:15.603Z,10.85
2019-02-24T09:34:45.823Z,11.60
2019-02-24T09:37:12.585Z,12.10
2019-02-24T09:39:38.884Z,12.48
2019-02-24T09:42:05.293Z,12.70
2019-02-24T09:44:31.552Z,12.95
2019-02-24T09:46:58.322Z,12.69
2019-02-24T09:49:24.743Z,12.69
2019-02-24T09:51:52.375Z,12.75
2019-02-24T09:54:18.929Z,12.48
2019-02-24T09:56:45.556Z,11.81
2019-02-24T09:59:11.915Z,12.31
2019-02-24T10:01:38.702Z,12.96
2019-02-24T10:04:05.073Z,13.34
2019-02-24T10:06:31.520Z,13.45
2019-02-24T10:08:57.999Z,13.24
2019-02-24T10:11:26.362Z,12.71
2019-02-24T10:13:52.647Z,12.72
2019-02-24T10:16:19.536Z,12.93
2019-02-24T10:18:45.894Z,13.54
2019-02-24T10:21:12.348Z,13.39
2019-02-24T10:23:38.714Z,13.30
2019-02-24T10:26:05.448Z,13.76
2019-02-24T10:28:31.759Z,14.70
2019-02-24T10:30:58.397Z,14.65
2019-02-24T10:33:24.839Z,14.98
2019-02-24T10:35:51.389Z,16.01
2019-02-24T10:38:17.704Z,16.15
2019-02-24T10:40:44.445Z,17.06
2019-02-24T10:43:10.783Z,17.59
2019-02-24T10:45:37.160Z,17.50
2019-02-24T10:48:13.342Z,18.19
2019-02-24T10:50:31.915Z,19.50
2019-02-24T10:52:58.875Z,18.59
2019-02-24T10:55:33.904Z,19.79
2019-02-24T10:58:09.122Z,19.07
2019-02-24T11:00:35.767Z,19.26
2019-02-24T11:03:02.223Z,18.20
2019-02-24T11:05:28.652Z,20.44
2019-02-24T11:07:55.180Z,20.57
2019-02-24T11:10:21.673Z,19.28
2019-02-24T11:12:50.595Z,19.03
2019-02-24T11:15:17.155Z,19.27
2019-02-24T11:17:51.883Z,18.99
2019-02-24T11:20:18.561Z,17.15
2019-02-24T11:22:45.162Z,17.08
2019-02-24T11:25:12.718Z,16.76
2019-02-24T11:27:39.354Z,16.79
2019-02-24T11:30:08.849Z,17.66
2019-02-24T11:32:35.419Z,18.91
2019-02-24T11:35:02.634Z,19.01
2019-02-24T11:37:29.486Z,19.11
2019-02-24T11:39:55.718Z,18.88
2019-02-24T11:42:22.007Z,18.54
2019-02-24T11:44:48.504Z,19.77
2019-02-24T11:47:15.008Z,19.54
2019-02-24T11:49:41.246Z,18.50
2019-02-24T11:52:07.676Z,17.09
2019-02-24T11:54:34.216Z,17.50
2019-02-24T11:57:00.448Z,18.46
2019-02-24T11:59:27.805Z,18.35
2019-02-24T12:01:54.464Z,17.31
2019-02-24T12:04:20.904Z,17.03
2019-02-24T12:06:47.336Z,17.40
2019-02-24T12:09:13.972Z,17.14
2019-02-24T12:11:40.912Z,17.44
2019-02-24T12:14:07.322Z,17.00
2019-02-24T12:16:33.656Z,17.35
2019-02-24T12:22:23.662Z,17.72
2019-02-24T12:24:50.000Z,17.68
2019-02-24T12:27:16.443Z,17.39
2019-02-24T12:29:42.783Z,17.53
2019-02-24T12:32:09.289Z,18.27
2019-02-24T12:34:35.713Z,17.46
2019-02-24T12:37:02.010Z,17.07
2019-02-24T12:39:28.388Z,17.59
2019-02-24T12:41:54.623Z,17.80
2019-02-24T12:44:20.899Z,17.89
2019-02-24T12:46:47.214Z,17.45
2019-02-24T12:49:13.512Z,17.61
2019-02-24T12:51:40.064Z,18.23
2019-02-24T12:54:06.902Z,17.69
2019-02-24T12:56:34.119Z,17.14
2019-02-24T12:59:00.487Z,16.39
2019-02-24T13:01:27.609Z,16.10
2019-02-24T13:03:54.083Z,16.15
2019-02-24T13:06:20.380Z,15.60
2019-02-24T13:08:46.843Z,15.21
2019-02-24T13:11:13.346Z,15.48
2019-02-24T13:13:39.733Z,15.54
2019-02-24T13:16:06.167Z,15.21
2019-02-24T13:18:32.867Z,14.97
2019-02-24T13:20:59.186Z,15.14
2019-02-24T13:23:25.573Z,15.07
2019-02-24T13:25:51.859Z,14.92
2019-02-24T13:28:18.094Z,14.75
2019-02-24T13:30:44.743Z,14.53
2019-02-24T13:33:10.951Z,14.64
2019-02-24T13:35:37.397Z,14.78
2019-02-24T13:38:03.798Z,14.55
2019-02-24T13:40:30.163Z,14.53
2019-02-24T13:42:56.485Z,14.59
2019-02-24T13:48:34.283Z,14.45
2019-02-24T13:51:00.543Z,14.20
2019-02-24T13:53:27.310Z,14.18
2019-02-24T13:55:53.722Z,14.29
2019-02-24T13:58:20.131Z,14.35
2019-02-24T14:00:46.858Z,14.58
2019-02-24T14:06:36.595Z,14.14
2019-02-24T14:09:08.248Z,14.38
2019-02-24T14:11:34.758Z,14.27
2019-02-24T14:14:01.319Z,14.18
2019-02-24T14:16:27.648Z,13.83
2019-02-24T14:18:53.967Z,14.04
2019-02-24T14:21:20.278Z,14.03
2019-02-24T14:23:46.652Z,13.79
2019-02-24T14:26:12.883Z,13.81
2019-02-24T14:28:39.369Z,13.81
2019-02-24T14:31:05.943Z,13.66
2019-02-24T14:33:32.288Z,13.49
2019-02-24T14:35:58.573Z,13.32
2019-02-24T14:38:25.114Z,13.25
2019-02-24T14:40:51.372Z,13.25
2019-02-24T14:43:17.987Z,13.16
2019-02-24T14:45:49.594Z,12.92
2019-02-24T14:48:12.574Z,13.14
2019-02-24T14:50:38.923Z,12.82
2019-02-24T14:53:05.367Z,12.94
2019-02-24T14:55:31.745Z,12.87
2019-02-24T14:57:58.123Z,12.79
2019-02-24T15:00:24.760Z,12.74
2019-02-24T15:06:03.052Z,12.61
2019-02-24T15:08:29.354Z,12.45
2019-02-24T15:10:55.771Z,12.37
2019-02-24T15:13:22.217Z,12.29
2019-02-24T15:15:48.684Z,12.29
2019-02-24T15:18:14.973Z,12.38
2019-02-24T15:20:41.376Z,12.44
2019-02-24T15:23:08.025Z,12.40
2019-02-24T15:25:34.371Z,12.56
2019-02-24T15:28:01.084Z,12.35
2019-02-24T15:30:36.956Z,12.29
2019-02-24T15:33:03.676Z,12.26
2019-02-24T15:35:30.142Z,12.37
2019-02-24T15:37:57.086Z,12.33
2019-02-24T15:40:24.021Z,12.30
2019-02-24T15:42:50.554Z,12.31
2019-02-24T15:45:17.296Z,12.26
2019-02-24T15:47:43.775Z,12.26
2019-02-24T15:50:11.824Z,12.18
2019-02-24T15:52:38.261Z,12.19
2019-02-24T15:55:10.186Z,12.19
2019-02-24T15:57:36.927Z,12.16
2019-02-24T16:00:13.505Z,12.15
2019-02-24T16:02:40.173Z,12.08
2019-02-24T16:05:08.663Z,12.02
2019-02-24T16:07:35.151Z,12.02
2019-02-24T16:13:16.963Z,11.87
2019-02-24T16:15:41.465Z,11.79
2019-02-24T16:18:07.938Z,11.79
2019-02-24T16:20:36.079Z,11.79
2019-02-24T16:23:03.119Z,11.75
2019-02-24T16:25:29.724Z,11.64
2019-02-24T16:27:56.453Z,11.58
2019-02-24T16:30:23.076Z,11.52
2019-02-24T16:32:49.519Z,11.44
2019-02-24T16:35:17.085Z,11.42
2019-02-24T16:37:43.751Z,11.38
2019-02-24T16:40:19.192Z,11.27
2019-02-24T16:42:51.693Z,11.19
2019-02-24T16:45:18.669Z,11.11
2019-02-24T16:47:45.680Z,11.12
2019-02-24T16:50:17.250Z,11.10
2019-02-24T16:56:07.250Z,10.96
2019-02-24T16:58:33.766Z,10.88
2019-02-24T17:01:00.206Z,10.95
2019-02-24T17:03:26.726Z,10.85
2019-02-24T17:05:53.660Z,10.79
2019-02-24T17:08:19.925Z,10.84
2019-02-24T17:10:46.586Z,10.72
2019-02-24T17:13:13.196Z,10.87
2019-02-24T17:15:39.679Z,10.81
2019-02-24T17:18:06.261Z,10.82
2019-02-24T17:20:32.801Z,10.70
2019-02-24T17:22:59.277Z,10.78
2019-02-24T17:25:26.090Z,10.66
2019-02-24T17:27:56.136Z,10.55
2019-02-24T17:30:23.960Z,10.49
2019-02-24T17:32:51.715Z,10.42
2019-02-24T17:35:20.385Z,10.22
2019-02-24T17:37:47.077Z,10.12
2019-02-24T17:40:21.223Z,10.15
2019-02-24T17:42:47.660Z,10.10
2019-02-24T17:45:14.759Z,10.18
2019-02-24T17:47:41.184Z,10.04
2019-02-24T17:50:10.031Z,9.96
2019-02-24T17:52:36.595Z,9.99
2019-02-24T17:55:06.969Z,10.04
2019-02-24T17:57:37.379Z,10.00
2019-02-24T18:00:14.250Z,10.00
2019-02-24T18:02:41.656Z,9.97
2019-02-24T18:05:07.982Z,10.07
2019-02-24T18:07:39.432Z,9.96
2019-02-24T18:10:15.877Z,9.81
2019-02-24T18:12:42.619Z,9.80
2019-02-24T18:15:11.024Z,9.77
2019-02-24T18:17:40.734Z,9.70
2019-02-24T18:20:16.450Z,9.62
2019-02-24T18:22:43.255Z,9.60
2019-02-24T18:25:13.298Z,9.62
2019-02-24T18:31:03.386Z,9.54
2019-02-24T18:33:30.268Z,9.54
2019-02-24T18:35:57.449Z,9.59
2019-02-24T18:38:23.861Z,9.57
2019-02-24T18:40:50.468Z,9.51
2019-02-24T18:43:17.175Z,9.45
2019-02-24T18:45:43.335Z,9.47
2019-02-24T18:48:09.679Z,9.46
2019-02-24T18:50:36.028Z,9.56
2019-02-24T18:53:02.856Z,9.61
2019-02-24T18:55:29.469Z,9.75
2019-02-24T18:57:56.152Z,9.59
2019-02-24T19:00:22.821Z,9.52
2019-02-24T19:02:49.718Z,9.47
2019-02-24T19:05:17.509Z,9.49
2019-02-24T19:07:46.036Z,9.36
2019-02-24T19:10:21.830Z,9.23
2019-02-24T19:12:49.386Z,9.06
2019-02-24T19:15:20.547Z,9.12
2019-02-24T19:17:48.297Z,8.93
2019-02-24T19:20:17.923Z,9.04
2019-02-24T19:22:45.371Z,9.04
2019-02-24T19:25:12.497Z,8.81
2019-02-24T19:27:39.128Z,8.86
2019-02-24T19:30:09.032Z,8.98
2019-02-24T19:32:35.409Z,8.96
2019-02-24T19:35:02.318Z,8.82
2019-02-24T19:37:29.199Z,8.78
2019-02-24T19:39:56.632Z,8.91
2019-02-24T19:42:23.184Z,8.95
2019-02-24T19:44:49.696Z,8.72
2019-02-24T19:47:16.307Z,8.61
2019-02-24T19:49:42.970Z,8.47
2019-02-24T19:52:09.208Z,8.49
2019-02-24T19:54:35.457Z,8.37
2019-02-24T19:57:01.935Z,8.41
2019-02-24T19:59:28.479Z,8.52
2019-02-24T20:01:55.342Z,8.56
2019-02-24T20:04:21.802Z,8.33
2019-02-24T20:06:48.851Z,8.19
2019-02-24T20:09:16.150Z,8.23
2019-02-24T20:11:44.055Z,8.27
2019-02-24T20:14:13.186Z,8.47
2019-02-24T20:16:40.073Z,8.29
2019-02-24T20:19:06.628Z,8.22
2019-02-24T20:21:35.237Z,8.23
2019-02-24T20:24:02.474Z,8.24
2019-02-24T20:26:29.515Z,8.31
2019-02-24T20:28:56.287Z,8.28
2019-02-24T20:31:22.977Z,8.68
2019-02-24T20:33:51.395Z,8.72
2019-02-24T20:36:17.949Z,8.64
2019-02-24T20:38:44.253Z,8.65
2019-02-24T20:41:11.093Z,8.51
2019-02-24T20:43:37.651Z,8.48
2019-02-24T20:46:04.139Z,8.57
2019-02-24T20:48:30.768Z,8.53
2019-02-24T20:50:57.060Z,8.41
2019-02-24T20:53:23.517Z,8.41
2019-02-24T20:55:51.245Z,8.44
2019-02-24T20:58:19.318Z,8.27
2019-02-24T21:00:51.618Z,8.24
2019-02-24T21:03:28.755Z,8.23
2019-02-24T21:05:51.703Z,8.29
2019-02-24T21:08:35.464Z,8.12
2019-02-24T21:11:01.979Z,8.16
2019-02-24T21:13:28.361Z,8.20
2019-02-24T21:15:54.743Z,8.15
2019-02-24T21:18:21.671Z,8.17
2019-02-24T21:24:11.495Z,8.34
2019-02-24T21:26:37.750Z,8.11
2019-02-24T21:29:13.169Z,8.34
2019-02-24T21:31:39.182Z,8.36
2019-02-24T21:34:06.728Z,8.08
2019-02-24T21:36:33.056Z,8.03
2019-02-24T21:38:59.559Z,7.85
2019-02-24T21:41:25.945Z,7.89
2019-02-24T21:43:52.730Z,7.98
2019-02-24T21:46:19.396Z,7.96
2019-02-24T21:48:46.104Z,8.01
2019-02-24T21:51:13.086Z,7.97
2019-02-24T21:53:41.999Z,7.87
2019-02-24T21:56:11.510Z,7.87
2019-02-24T21:58:38.554Z,7.89
2019-02-24T22:01:12.372Z,7.90
2019-02-24T22:03:43.023Z,7.72
2019-02-24T22:09:35.259Z,7.74
2019-02-24T22:12:02.209Z,7.77
2019-02-24T22:14:28.819Z,7.84
2019-02-24T22:16:55.175Z,8.06
2019-02-24T22:19:21.516Z,7.85
2019-02-24T22:21:47.718Z,7.89
2019-02-24T22:24:14.045Z,7.93
2019-02-24T22:26:40.365Z,7.92
2019-02-24T22:29:06.592Z,8.03
2019-02-24T22:31:32.898Z,7.81
2019-02-24T22:33:59.290Z,7.73
2019-02-24T22:36:25.784Z,7.70
2019-02-24T22:38:52.031Z,7.63
2019-02-24T22:41:19.170Z,7.43
2019-02-24T22:43:46.421Z,7.39
2019-02-24T22:46:12.626Z,7.19
2019-02-24T22:48:38.949Z,7.19
2019-02-24T22:51:05.761Z,7.13
2019-02-24T22:53:32.224Z,7.09
2019-02-24T22:55:58.827Z,6.94
2019-02-24T22:58:25.194Z,6.85
2019-02-24T23:00:58.558Z,6.81
2019-02-24T23:03:30.932Z,6.71
2019-02-24T23:05:57.399Z,6.67
2019-02-24T23:08:24.017Z,6.61
2019-02-24T23:10:50.437Z,6.38
2019-02-24T23:13:16.846Z,6.49
2019-02-24T23:15:43.325Z,6.50
2019-02-24T23:18:09.874Z,6.51
2019-02-24T23:20:36.412Z,6.53
2019-02-24T23:23:03.179Z,6.56
2019-02-24T23:25:29.954Z,6.56
2019-02-24T23:27:56.300Z,6.61
2019-02-24T23:30:23.301Z,6.66
2019-02-24T23:32:49.761Z,6.66
2019-02-24T23:35:16.156Z,6.67
2019-02-24T23:37:42.410Z,6.78
2019-02-24T23:40:08.867Z,6.82
2019-02-24T23:42:44.633Z,6.81
2019-02-24T23:45:11.595Z,6.86
2019-02-24T23:47:38.184Z,6.88
2019-02-24T23:50:12.212Z,6.83
2019-02-24T23:52:38.817Z,6.76
2019-02-24T23:55:06.384Z,6.74
2019-02-24T23:57:32.733Z,6.76
2019-02-24T23:59:59.047Z,6.57
